Time;durP1;ratioP1;P1;durP2;ratioP2;P2;SDS_P1;SDS_P2;PMS_P1;PMS_P2;Temp;Humidity;BMP_temperature;BMP_pressure;BME280_temperature;BME280_humidity;BME280_pressure;Samples;Min_cycle;Max_cycle;Signal;HPM_P1;HPM_P2
2022/05/09 00:46:02;;;;;;;;;13.60;11.60;;;;;15.76;100.00;102072.16;5975581;23;44828;-85
2022/05/09 01:13:28;;;;;;;;;15.50;14.50;;;;;14.99;100.00;102068.28;6057577;23;45501;-84
2022/05/09 01:23:34;;;;;;;;;;;;;;;;;;;;;
2022/05/09 01:33:14;;;;;;;;;16.50;15.25;;;;;14.65;100.00;102070.44;6000358;23;45041;-82
2022/05/09 01:36:48;;;;;;;;;18.75;16.00;;;;;14.53;100.00;102068.53;6020232;23;44793;-83
2022/05/09 01:43:55;;;;;;;;;;;;;;;;;;;;;
2022/05/09 02:11:10;;;;;;;;;13.75;13.00;;;;;14.07;100.00;102066.84;5902713;24;44722;-83
2022/05/09 02:15:07;;;;;;;;;;;;;;;;;;;;;
2022/05/09 02:24:27;;;;;;;;;16.25;13.25;;;;;14.02;100.00;102060.03;5896908;24;45307;-84
2022/05/09 03:30:58;;;;;;;;;;;;;;;;;;;;;
2022/05/09 03:44:40;;;;;;;;;;;;;;;;;;;;;
2022/05/09 04:25:53;;;;;;;;;18.00;16.00;;;;;12.66;100.00;102043.81;6339705;22;44794;-84
2022/05/09 04:54:02;;;;;;;;;18.50;16.50;;;;;12.98;100.00;102050.03;6402609;22;44890;-85
2022/05/09 05:10:56;;;;;;;;;;;;;;;;;;;;;
2022/05/09 05:14:28;;;;;;;;;;;;;;;;;;;;;
2022/05/09 05:24:57;;;;;;;;;;;;;;;;;;;;;
2022/05/09 05:45:06;;;;;;;;;13.60;13.60;;;;;14.78;100.00;102066.03;5784604;24;44848;-85
2022/05/09 07:05:00;;;;;;;;;;;;;;;;;;;;;
2022/05/09 08:27:52;;;;;;;;;32.75;26.75;;;;;19.97;100.00;102076.78;6376486;22;44899;-83
2022/05/09 09:44:44;;;;;;;;;;;;;;;;;;;;;
2022/05/09 10:49:33;;;;;;;;;;;;;;;;;;;;;
2022/05/09 10:56:24;;;;;;;;;;;;;;;;;;;;;
2022/05/09 11:02:54;;;;;;;;;29.20;24.80;;;;;24.17;84.51;102010.75;6151200;23;45517;-85
2022/05/09 11:09:38;;;;;;;;;26.50;25.00;;;;;24.65;81.01;101986.72;6039066;23;44809;-86
2022/05/09 11:12:37;;;;;;;;;28.75;27.25;;;;;24.53;78.67;101987.03;5901498;24;45368;-86
2022/05/09 11:15:53;;;;;;;;;20.20;20.20;;;;;24.37;78.35;101989.69;5903247;24;44811;-86
2022/05/09 11:18:28;;;;;;;;;22.00;20.00;;;;;24.33;79.79;101991.00;5895629;24;44796;-85
2022/05/09 11:21:34;;;;;;;;;22.75;20.25;;;;;24.45;77.88;101989.72;6006151;23;44895;-86
2022/05/09 11:31:13;;;;;;;;;26.60;25.40;;;;;24.97;76.35;101986.00;6099496;23;44907;-86
2022/05/09 14:50:13;;;;;;;;;12.60;11.40;;;;;32.63;32.46;101825.22;6272629;22;45412;-84
2022/05/09 14:52:57;;;;;;;;;14.40;13.60;;;;;32.62;32.81;101816.13;6248885;22;45464;-85
2022/05/09 14:58:31;;;;;;;;;12.00;11.80;;;;;33.22;31.15;101816.50;6275757;22;44849;-84
2022/05/09 15:01:03;;;;;;;;;7.20;6.80;;;;;33.47;31.57;101822.00;6254192;22;45318;-85
2022/05/09 15:03:33;;;;;;;;;12.00;12.00;;;;;33.48;29.42;101818.16;6252889;22;44893;-85
2022/05/09 15:05:58;;;;;;;;;14.00;11.60;;;;;33.02;31.75;101817.75;6272967;22;45033;-83
2022/05/09 15:08:24;;;;;;;;;11.50;11.50;;;;;32.29;30.39;101805.31;6273328;22;44748;-84
2022/05/09 15:10:52;;;;;;;;;13.80;12.80;;;;;31.19;31.53;101812.63;6272440;22;44781;-84
2022/05/09 15:13:20;;;;;;;;;14.60;12.40;;;;;30.96;40.81;101788.34;6273099;22;44749;-85
2022/05/09 15:15:53;;;;;;;;;15.40;14.00;;;;;31.15;33.80;101798.47;6247790;22;45266;-85
2022/05/09 15:18:20;;;;;;;;;12.80;12.20;;;;;31.63;33.46;101786.34;6265047;22;44694;-84
2022/05/09 15:20:46;;;;;;;;;10.20;10.20;;;;;31.70;33.48;101798.16;6368484;22;44697;-84
2022/05/09 15:23:13;;;;;;;;;13.50;12.00;;;;;31.49;33.77;101785.56;6369037;22;44713;-84
2022/05/09 15:25:45;;;;;;;;;11.80;11.80;;;;;31.18;35.03;101781.56;6367876;22;45058;-83
2022/05/09 15:28:14;;;;;;;;;11.00;11.00;;;;;31.02;35.79;101776.53;6368588;22;44782;-83
2022/05/09 15:30:39;;;;;;;;;14.00;13.00;;;;;30.73;35.40;101780.53;6343273;22;45349;-84
2022/05/09 15:33:04;;;;;;;;;12.00;12.00;;;;;30.98;34.56;101783.47;6367728;22;44788;-84
2022/05/09 15:35:30;;;;;;;;;13.00;13.00;;;;;31.33;34.26;101777.75;6369351;22;44879;-84
2022/05/09 15:37:56;;;;;;;;;12.25;11.75;;;;;31.65;33.38;101774.06;6341358;22;44692;-85
2022/05/09 15:40:21;;;;;;;;;12.50;12.50;;;;;31.99;32.65;101769.31;6367146;22;44829;-84
2022/05/09 15:42:47;;;;;;;;;12.75;12.25;;;;;32.67;32.34;101768.66;6342805;22;45307;-84
2022/05/09 15:45:17;;;;;;;;;12.50;10.50;;;;;33.35;32.41;101774.19;6341949;22;45483;-85
2022/05/09 15:47:45;;;;;;;;;12.00;12.00;;;;;33.81;30.76;101769.22;6370302;22;44585;-84
2022/05/09 15:50:16;;;;;;;;;12.20;10.80;;;;;33.68;31.35;101768.31;6370813;22;44769;-83
2022/05/09 15:52:43;;;;;;;;;13.40;11.40;;;;;33.66;31.23;101764.97;6377605;22;44831;-83
2022/05/09 15:55:10;;;;;;;;;15.20;13.80;;;;;33.92;31.05;101766.50;6348565;22;45365;-84
2022/05/09 15:57:36;;;;;;;;;14.00;13.40;;;;;34.30;29.18;101765.38;6375772;22;45200;-83
2022/05/09 16:00:08;;;;;;;;;10.40;9.40;;;;;34.35;29.96;101771.03;6381228;22;44770;-83
2022/05/09 16:02:34;;;;;;;;;11.40;11.40;;;;;34.39;29.57;101763.97;6373048;22;44977;-84
2022/05/09 16:05:00;;;;;;;;;16.80;11.60;;;;;34.47;29.71;101765.56;6373892;22;45098;-83
2022/05/09 16:12:57;;;;;;;;;10.60;10.60;;;;;35.87;27.03;101766.59;6372648;22;44684;-84
2022/05/09 16:15:30;;;;;;;;;12.00;12.00;;;;;35.82;27.27;101760.94;6369430;22;45375;-83
2022/05/09 16:18:07;;;;;;;;;11.20;11.20;;;;;35.70;27.85;101761.00;6346085;22;45326;-84
2022/05/09 16:20:32;;;;;;;;;7.80;6.00;;;;;35.35;25.98;101766.59;6372487;22;44688;-84
2022/05/09 16:22:58;;;;;;;;;11.50;10.50;;;;;35.18;27.55;101756.28;6351992;22;45312;-83
2022/05/09 16:25:24;;;;;;;;;11.75;11.75;;;;;35.55;28.33;101750.47;6378133;22;45408;-84
2022/05/09 16:27:49;;;;;;;;;12.25;12.25;;;;;35.87;27.02;101761.88;6370933;22;45218;-84
2022/05/09 16:30:22;;;;;;;;;11.50;10.00;;;;;36.16;26.96;101765.50;6346554;22;44746;-84
2022/05/09 16:32:49;;;;;;;;;5.60;5.40;;;;;36.38;26.46;101764.81;6349100;22;44802;-84
2022/05/09 16:35:16;;;;;;;;;10.60;10.60;;;;;36.26;25.22;101754.63;6371776;22;46791;-84
2022/05/09 16:37:44;;;;;;;;;11.40;9.40;;;;;36.20;25.99;101754.78;6370556;22;44711;-85
2022/05/09 16:40:12;;;;;;;;;8.80;8.80;;;;;36.13;26.39;101748.59;6369436;22;45297;-83
2022/05/09 16:42:40;;;;;;;;;10.20;10.00;;;;;36.42;25.41;101752.16;6341528;22;44756;-85
2022/05/09 16:45:10;;;;;;;;;9.20;9.20;;;;;36.46;26.17;101745.91;6371223;22;45430;-85
2022/05/09 16:47:37;;;;;;;;;12.00;10.80;;;;;36.32;26.55;101743.69;6369547;22;44782;-84
2022/05/09 16:50:06;;;;;;;;;9.80;8.20;;;;;36.13;25.12;101751.38;6369766;22;44774;-85
2022/05/09 16:52:32;;;;;;;;;12.40;11.00;;;;;35.81;26.82;101743.53;6370688;22;44791;-83
2022/05/09 16:54:58;;;;;;;;;9.60;9.60;;;;;35.58;27.75;101733.38;6341574;22;46488;-84
2022/05/09 16:57:24;;;;;;;;;11.75;11.75;;;;;35.17;27.62;101740.78;6371506;22;44759;-82
2022/05/09 16:59:51;;;;;;;;;12.00;12.00;;;;;34.23;25.42;101748.06;6349908;22;44712;-84
2022/05/09 17:02:21;;;;;;;;;14.40;11.00;;;;;33.25;26.94;101749.09;6377068;22;44839;-83
2022/05/09 17:04:46;;;;;;;;;9.60;9.60;;;;;32.77;28.27;101738.72;6346605;22;46633;-84
2022/05/09 17:07:14;;;;;;;;;13.00;13.00;;;;;32.52;28.30;101727.72;6375230;22;44641;-83
2022/05/09 17:09:43;;;;;;;;;11.80;10.00;;;;;32.51;29.56;101726.03;6379285;22;44696;-83
2022/05/09 17:12:16;;;;;;;;;9.20;9.20;;;;;32.94;29.61;101726.09;6343945;22;44848;-85
2022/05/09 17:14:41;;;;;;;;;13.40;13.40;;;;;33.15;28.09;101729.50;6372548;22;45252;-84
2022/05/09 17:17:08;;;;;;;;;12.00;12.00;;;;;32.10;28.26;101723.75;6370195;22;45338;-84
2022/05/09 17:19:34;;;;;;;;;8.40;8.40;;;;;31.71;29.36;101725.63;6369579;22;44692;-84
2022/05/09 17:22:00;;;;;;;;;9.80;9.80;;;;;31.94;29.83;101728.72;6368299;22;44776;-84
2022/05/09 17:24:27;;;;;;;;;9.50;9.00;;;;;32.41;29.78;101709.19;6341648;22;45586;-82
2022/05/09 17:26:55;;;;;;;;;9.20;9.20;;;;;32.55;29.41;101724.53;6340992;22;44773;-82
2022/05/09 17:29:22;;;;;;;;;13.20;11.00;;;;;32.65;30.15;101718.53;6341414;22;44790;-85
2022/05/09 17:31:47;;;;;;;;;12.60;11.20;;;;;32.77;29.87;101721.38;6367106;22;44949;-84
2022/05/09 17:34:15;;;;;;;;;10.25;10.25;;;;;32.69;28.60;101726.09;6369277;22;45294;-84
2022/05/09 17:39:25;;;;;;;;;11.40;9.80;;;;;32.51;29.69;101723.28;6370708;22;44674;-84
2022/05/09 17:41:50;;;;;;;;;12.00;12.00;;;;;31.55;30.32;101732.47;6371569;22;44775;-84
2022/05/09 17:44:16;;;;;;;;;8.75;8.75;;;;;30.76;31.43;101729.91;6371948;22;45091;-85
2022/05/09 17:46:46;;;;;;;;;8.75;7.25;;;;;30.62;32.13;101727.13;6347586;22;44752;-84
2022/05/09 17:49:14;;;;;;;;;11.40;10.80;;;;;30.35;32.18;101736.38;6349476;22;44720;-84
2022/05/09 17:51:40;;;;;;;;;9.20;9.20;;;;;30.39;32.89;101724.78;6374207;22;44758;-85
2022/05/09 17:54:05;;;;;;;;;11.50;10.25;;;;;30.42;32.03;101727.13;6369842;22;45330;-84
2022/05/09 17:56:31;;;;;;;;;10.50;10.50;;;;;30.03;32.08;101727.88;6371327;22;44670;-85
2022/05/09 17:58:57;;;;;;;;;13.80;12.40;;;;;29.63;33.21;101727.72;6343958;22;44715;-84
2022/05/09 18:01:32;;;;;;;;;9.50;9.50;;;;;29.68;33.69;101719.72;6372607;22;44854;-83
2022/05/09 18:03:57;;;;;;;;;10.40;10.40;;;;;29.53;33.86;101729.97;6373804;22;46511;-84
2022/05/09 18:06:23;;;;;;;;;10.50;8.25;;;;;28.83;34.61;101722.78;6375365;22;44715;-85
2022/05/09 18:08:48;;;;;;;;;10.00;9.25;;;;;28.47;35.57;101722.91;6373309;22;45427;-83
2022/05/09 18:11:17;;;;;;;;;12.25;11.75;;;;;28.36;35.91;101722.38;6375778;22;44751;-85
2022/05/09 18:13:43;;;;;;;;;14.80;12.40;;;;;28.02;37.10;101725.78;6372517;22;45207;-84
2022/05/09 18:16:12;;;;;;;;;9.20;9.20;;;;;27.72;37.97;101719.56;6343250;22;44704;-85
2022/05/09 18:18:51;;;;;;;;;13.80;10.80;;;;;27.53;38.51;101720.13;6368953;22;45402;-85
2022/05/09 18:21:24;;;;;;;;;8.80;8.80;;;;;27.46;38.94;101713.72;6373280;22;44751;-85
2022/05/09 18:24:00;;;;;;;;;19.80;12.40;;;;;27.29;39.45;101711.22;6371553;22;45254;-83
2022/05/09 18:26:29;;;;;;;;;13.80;11.60;;;;;27.07;40.06;101714.84;6370037;22;44708;-83
2022/05/09 18:28:55;;;;;;;;;15.40;12.80;;;;;26.81;40.57;101712.56;6342528;22;45271;-84
2022/05/09 18:31:22;;;;;;;;;6.75;6.25;;;;;26.44;41.79;101722.44;6369637;22;44910;-82
2022/05/09 18:33:48;;;;;;;;;13.60;12.20;;;;;26.14;43.06;101716.00;6371885;22;45721;-84
2022/05/09 18:36:16;;;;;;;;;10.00;10.00;;;;;25.98;43.32;101725.13;6375825;22;44814;-84
2022/05/09 18:38:45;;;;;;;;;11.20;11.20;;;;;25.85;44.03;101722.13;6375580;22;44810;-84
2022/05/09 18:41:28;;;;;;;;;13.00;12.20;;;;;25.79;44.83;101723.69;6370177;22;45248;-83
2022/05/09 18:43:54;;;;;;;;;14.80;13.60;;;;;25.72;45.17;101725.38;6370420;22;45111;-84
2022/05/09 18:46:22;;;;;;;;;20.50;19.50;;;;;25.71;45.51;101729.16;6368820;22;44795;-85
2022/05/09 18:54:18;;;;;;;;;12.00;10.40;;;;;25.29;47.91;101733.09;6371253;22;45011;-85
2022/05/09 18:56:44;;;;;;;;;12.75;11.50;;;;;25.12;49.07;101734.13;6368624;22;45368;-85
2022/05/09 18:59:09;;;;;;;;;12.50;12.50;;;;;25.00;49.33;101732.78;6369719;22;45248;-84
2022/05/09 19:01:34;;;;;;;;;12.50;12.00;;;;;24.87;51.08;101727.88;6346004;22;44821;-83
2022/05/09 19:04:01;;;;;;;;;12.25;11.00;;;;;24.70;53.15;101727.03;6345969;22;45330;-83
2022/05/09 19:06:26;;;;;;;;;13.80;12.00;;;;;24.53;54.02;101728.91;6348911;22;44890;-84
2022/05/09 19:08:52;;;;;;;;;13.75;13.75;;;;;24.41;56.94;101735.69;6381159;22;45476;-84
2022/05/09 19:11:23;;;;;;;;;13.00;11.25;;;;;24.31;58.12;101737.69;6380469;22;44743;-84
2022/05/09 19:13:51;;;;;;;;;15.80;14.80;;;;;24.23;60.18;101732.28;6370768;22;45470;-85
2022/05/09 19:16:23;;;;;;;;;20.60;16.00;;;;;24.16;60.59;101739.38;6369068;22;44771;-85
2022/05/09 19:18:51;;;;;;;;;15.60;13.60;;;;;24.08;61.59;101737.50;6342093;22;45607;-84
2022/05/09 19:21:17;;;;;;;;;11.40;11.40;;;;;24.01;62.60;101742.72;6344365;22;45452;-83
2022/05/09 19:23:43;;;;;;;;;11.25;10.50;;;;;23.92;64.84;101741.00;6376831;22;45327;-84
2022/05/09 19:26:10;;;;;;;;;12.50;11.00;;;;;23.81;66.00;101747.59;6375290;22;44814;-84
2022/05/09 19:28:44;;;;;;;;;14.40;12.20;;;;;23.75;67.75;101753.69;6342537;22;45257;-84
2022/05/09 19:31:13;;;;;;;;;16.20;15.40;;;;;23.69;68.53;101748.94;6370954;22;45277;-83
2022/05/09 19:33:43;;;;;;;;;11.40;11.40;;;;;23.64;69.57;101755.84;6348249;22;46254;-85
2022/05/09 19:36:09;;;;;;;;;18.00;15.20;;;;;23.58;71.23;101754.59;6344643;22;44659;-84
2022/05/09 19:38:37;;;;;;;;;17.75;14.25;;;;;23.51;72.01;101761.69;6355375;22;45286;-84
2022/05/09 19:41:07;;;;;;;;;15.20;15.20;;;;;23.49;72.66;101766.41;6378867;22;44763;-84
2022/05/09 19:43:35;;;;;;;;;17.40;16.80;;;;;23.43;73.70;101773.34;6370651;22;45402;-84
2022/05/09 19:46:06;;;;;;;;;17.60;16.40;;;;;23.40;74.33;101776.38;6369093;22;44954;-84
2022/05/09 19:48:32;;;;;;;;;15.60;11.60;;;;;23.36;75.30;101776.88;6372765;22;44689;-85
2022/05/09 19:51:01;;;;;;;;;13.40;13.40;;;;;23.31;75.85;101767.38;6370708;22;45403;-84
2022/05/09 19:56:10;;;;;;;;;15.80;13.80;;;;;23.25;76.67;101778.81;6372287;22;44740;-83
2022/05/09 19:58:36;;;;;;;;;17.25;15.25;;;;;23.21;76.59;101787.44;6343808;22;45392;-83
2022/05/09 20:01:05;;;;;;;;;17.25;15.25;;;;;23.17;77.47;101786.09;6349727;22;44893;-84
2022/05/09 20:03:33;;;;;;;;;15.20;13.20;;;;;23.13;78.84;101781.97;6373126;22;45465;-84
2022/05/09 20:06:00;;;;;;;;;12.40;12.40;;;;;23.08;79.54;101785.19;6379173;22;44630;-84
2022/05/09 20:08:25;;;;;;;;;16.40;13.80;;;;;23.04;79.94;101787.34;6378030;22;44666;-84
2022/05/09 20:10:51;;;;;;;;;17.40;16.60;;;;;22.99;80.97;101786.13;6385532;22;44949;-84
2022/05/09 20:13:18;;;;;;;;;11.75;10.50;;;;;22.95;81.96;101798.28;6380866;22;45258;-85
2022/05/09 20:15:44;;;;;;;;;20.40;20.40;;;;;22.92;83.16;101801.28;6378410;22;45205;-85
2022/05/09 20:18:12;;;;;;;;;19.40;17.60;;;;;22.89;83.76;101797.06;6373400;22;44746;-84
2022/05/09 20:20:41;;;;;;;;;23.25;21.75;;;;;22.87;84.01;101801.75;6381159;22;44818;-85
2022/05/09 20:23:12;;;;;;;;;21.20;19.00;;;;;22.84;84.40;101796.66;6375396;22;45206;-84
2022/05/09 20:31:09;;;;;;;;;17.80;16.60;;;;;22.73;83.45;101794.19;6377145;22;45416;-83
2022/05/09 20:33:35;;;;;;;;;19.80;18.20;;;;;22.69;82.45;101796.34;6372805;22;45394;-84
2022/05/09 20:36:02;;;;;;;;;17.50;17.50;;;;;22.64;83.29;101801.38;6374074;22;44715;-85
2022/05/09 20:38:30;;;;;;;;;17.20;17.20;;;;;22.56;83.34;101788.59;6370835;22;44712;-86
2022/05/09 20:40:58;;;;;;;;;16.40;16.40;;;;;22.49;84.44;101800.25;6379145;22;44906;-87
2022/05/09 20:43:31;;;;;;;;;14.00;14.00;;;;;22.41;85.54;101795.56;6362441;22;46771;-86
2022/05/09 20:45:57;;;;;;;;;16.40;16.40;;;;;22.30;87.19;101802.06;6323729;22;45359;-84
2022/05/09 20:48:22;;;;;;;;;17.80;17.80;;;;;22.18;88.37;101792.47;6376868;22;44864;-83
2022/05/09 20:50:49;;;;;;;;;19.00;18.25;;;;;22.03;89.46;101793.94;6379360;22;45306;-84
2022/05/09 20:53:39;;;;;;;;;20.40;19.40;;;;;21.90;89.43;101786.19;6381263;22;45153;-86
2022/05/09 20:56:05;;;;;;;;;24.60;21.40;;;;;21.83;90.05;101789.66;6388475;22;44704;-82
2022/05/09 20:58:32;;;;;;;;;25.00;23.00;;;;;21.76;91.73;101787.56;6380940;22;44690;-84
2022/05/09 21:00:59;;;;;;;;;23.75;23.75;;;;;21.71;94.58;101787.16;6380116;22;44740;-84
2022/05/09 21:03:27;;;;;;;;;25.25;24.00;;;;;21.68;93.85;101797.41;6381115;22;45075;-83
2022/05/09 21:05:52;;;;;;;;;25.20;20.60;;;;;21.64;93.61;101787.88;6379744;22;44612;-84
2022/05/09 21:08:24;;;;;;;;;27.00;24.50;;;;;21.62;95.11;101796.16;6383497;22;45237;-85
2022/05/09 21:10:52;;;;;;;;;19.25;19.25;;;;;21.57;93.33;101792.22;6376646;22;45497;-83
2022/05/09 21:13:18;;;;;;;;;23.25;22.00;;;;;21.53;92.97;101797.06;6376583;22;45395;-84
2022/05/09 21:15:44;;;;;;;;;23.40;21.60;;;;;21.48;93.28;101791.25;6382588;22;44751;-83
2022/05/09 21:18:09;;;;;;;;;26.25;22.50;;;;;21.42;92.55;101787.28;6386450;22;45248;-84
2022/05/09 21:20:38;;;;;;;;;18.75;17.50;;;;;21.37;93.15;101786.88;6381093;22;44860;-83
2022/05/09 21:23:04;;;;;;;;;24.50;22.75;;;;;21.34;94.35;101797.97;6375746;22;46787;-85
2022/05/09 21:25:36;;;;;;;;;25.40;22.40;;;;;21.26;95.58;101787.84;6374083;22;44675;-85
2022/05/09 21:28:17;;;;;;;;;22.25;20.25;;;;;21.24;96.49;101795.25;6377027;22;45257;-84
2022/05/09 21:30:42;;;;;;;;;16.00;16.00;;;;;21.19;97.08;101783.19;6375553;22;45411;-82
2022/05/09 21:33:08;;;;;;;;;25.50;21.25;;;;;21.16;97.26;101784.31;6370075;22;46597;-83
2022/05/09 21:35:39;;;;;;;;;21.75;20.25;;;;;21.15;96.76;101776.38;6375971;22;44770;-84
2022/05/09 21:38:05;;;;;;;;;22.40;21.20;;;;;21.13;97.82;101781.03;6373261;22;44767;-83
2022/05/09 21:43:16;;;;;;;;;30.50;26.00;;;;;21.06;98.21;101778.09;6376351;22;44950;-83
2022/05/09 21:45:42;;;;;;;;;23.50;22.75;;;;;21.02;96.73;101772.13;6376193;22;45088;-83
2022/05/09 21:48:07;;;;;;;;;23.00;23.00;;;;;20.98;96.32;101772.53;6370701;22;44657;-82
2022/05/09 21:50:33;;;;;;;;;26.50;21.75;;;;;20.95;96.69;101775.56;6371489;22;45391;-83
2022/05/09 21:52:59;;;;;;;;;26.50;21.75;;;;;20.90;98.76;101773.28;6371428;22;46617;-84
2022/05/09 21:55:27;;;;;;;;;23.25;23.25;;;;;20.87;98.88;101772.72;6378953;22;44673;-87
2022/05/09 21:57:53;;;;;;;;;24.00;22.25;;;;;20.86;100.00;101771.03;6327447;22;45348;-88
2022/05/09 22:00:45;;;;;;;;;31.25;27.50;;;;;20.84;100.00;101773.88;6353192;22;44822;-89
2022/05/09 22:03:12;;;;;;;;;29.00;24.25;;;;;20.84;100.00;101773.00;6285756;22;45256;-89
2022/05/09 22:05:40;;;;;;;;;23.40;23.00;;;;;20.86;100.00;101771.03;6286481;22;44741;-88
2022/05/09 22:08:09;;;;;;;;;23.00;22.25;;;;;20.87;100.00;101775.41;6260389;22;45194;-89
2022/05/09 22:10:35;;;;;;;;;22.75;21.75;;;;;20.89;100.00;101768.03;6257709;22;44944;-89
2022/05/09 22:13:04;;;;;;;;;24.50;23.50;;;;;20.88;99.80;101756.34;6258515;22;46103;-88
2022/05/09 22:15:36;;;;;;;;;24.40;23.40;;;;;20.89;100.00;101762.63;6261127;22;44850;-88
2022/05/09 22:18:05;;;;;;;;;21.80;21.40;;;;;20.84;100.00;101751.38;6292416;22;45308;-87
2022/05/09 22:20:32;;;;;;;;;24.25;23.00;;;;;20.82;100.00;101756.94;6293607;22;44815;-89
2022/05/09 22:23:00;;;;;;;;;24.00;22.40;;;;;20.77;100.00;101748.41;6259145;22;46503;-89
2022/05/09 22:25:25;;;;;;;;;23.20;23.20;;;;;20.71;100.00;101743.59;6253548;22;45518;-88
2022/05/09 22:27:51;;;;;;;;;22.25;21.00;;;;;20.67;100.00;101744.88;6254528;22;44754;-87
2022/05/09 22:30:37;;;;;;;;;27.75;25.75;;;;;20.64;100.00;101742.47;6278963;22;44943;-88
2022/05/09 22:33:09;;;;;;;;;31.50;28.25;;;;;20.61;100.00;101740.91;6283833;22;45582;-90
2022/05/09 22:36:36;;;;;;;;;32.75;29.75;;;;;20.57;100.00;101741.34;6285712;22;44820;-86
2022/05/09 22:43:00;;;;;;;;;24.75;21.50;;;;;20.49;100.00;101734.78;6209930;22;44867;-88
2022/05/09 22:46:03;;;;;;;;;;;;;;;;;;;;;
2022/05/09 22:48:55;;;;;;;;;25.80;22.00;;;;;20.40;100.00;101729.38;6252687;22;72874;-89
2022/05/09 22:51:37;;;;;;;;;;;;;;;;;;;;;
2022/05/09 22:54:49;;;;;;;;;22.50;21.25;;;;;20.36;100.00;101733.38;6239486;22;69873;-88
2022/05/09 22:57:41;;;;;;;;;30.25;25.50;;;;;20.29;100.00;101730.38;6218812;22;45355;-87
2022/05/09 23:00:22;;;;;;;;;25.00;24.25;;;;;20.23;100.00;101731.78;6228512;22;45413;-87
2022/05/09 23:03:17;;;;;;;;;27.00;26.75;;;;;20.15;100.00;101739.72;6219441;22;44760;-87
2022/05/09 23:06:00;;;;;;;;;29.50;27.50;;;;;20.07;100.00;101726.09;6244252;22;44780;-87
2022/05/09 23:08:34;;;;;;;;;29.75;27.50;;;;;20.00;100.00;101733.03;6245197;22;45158;-88
2022/05/09 23:11:13;;;;;;;;;;;;;;;;;;;;;
2022/05/09 23:13:43;;;;;;;;;28.25;28.00;;;;;19.86;100.00;101725.34;6243601;22;68064;-86
2022/05/09 23:16:26;;;;;;;;;31.00;26.50;;;;;19.79;100.00;101724.22;6253194;22;44799;-88
2022/05/09 23:21:51;;;;;;;;;24.80;22.60;;;;;19.66;100.00;101719.06;6357252;22;44762;-89
2022/05/09 23:24:26;;;;;;;;;30.75;25.00;;;;;19.62;100.00;101705.00;6323414;22;45203;-87
2022/05/09 23:30:48;;;;;;;;;;;;;;;;;;;;;
2022/05/09 23:34:11;;;;;;;;;23.50;22.00;;;;;19.47;100.00;101703.63;6197181;23;72932;-88
2022/05/09 23:36:36;;;;;;;;;27.25;24.25;;;;;19.41;100.00;101704.19;6105475;23;45859;-85
2022/05/09 23:39:42;;;;;;;;;28.25;25.00;;;;;19.33;100.00;101696.78;6104517;23;45792;-86
2022/05/09 23:42:10;;;;;;;;;25.25;23.25;;;;;19.34;100.00;101700.31;6128515;23;46410;-88
2022/05/09 23:44:39;;;;;;;;;31.00;28.25;;;;;19.28;100.00;101696.34;6129225;23;44782;-86
2022/05/09 23:47:12;;;;;;;;;30.50;26.50;;;;;19.24;100.00;101698.47;6129125;23;45340;-88
2022/05/09 23:50:07;;;;;;;;;23.50;22.00;;;;;19.20;100.00;101698.88;6129195;23;45376;-87
2022/05/09 23:52:40;;;;;;;;;27.50;25.00;;;;;19.16;100.00;101692.91;6132190;23;45976;-87
2022/05/09 23:55:59;;;;;;;;;24.25;22.50;;;;;19.12;100.00;101688.75;6130500;23;45256;-87
2022/05/09 23:59:12;;;;;;;;;34.25;27.50;;;;;19.07;100.00;101682.06;6075664;23;45308;-86
